createdAt,value
2019-03-23T00:00:51.806Z,0.00
2019-03-23T00:01:51.836Z,0.00
2019-03-23T00:02:51.784Z,0.00
2019-03-23T00:03:51.764Z,0.00
2019-03-23T00:04:51.778Z,0.00
2019-03-23T00:05:51.779Z,0.00
2019-03-23T00:06:51.741Z,0.00
2019-03-23T00:07:51.734Z,0.00
2019-03-23T00:08:51.734Z,0.00
2019-03-23T00:09:51.712Z,0.00
2019-03-23T00:10:51.692Z,0.00
2019-03-23T00:11:51.680Z,0.00
2019-03-23T00:12:51.675Z,0.00
2019-03-23T00:13:51.663Z,0.00
2019-03-23T00:14:51.670Z,0.00
2019-03-23T00:15:51.640Z,0.00
2019-03-23T00:16:51.627Z,0.00
2019-03-23T00:17:51.620Z,0.00
2019-03-23T00:18:51.612Z,0.00
2019-03-23T00:19:51.664Z,0.00
2019-03-23T00:20:51.592Z,0.00
2019-03-23T00:21:51.579Z,0.00
2019-03-23T00:22:51.574Z,0.00
2019-03-23T00:23:51.562Z,0.00
2019-03-23T00:24:51.561Z,0.00
2019-03-23T00:25:51.537Z,0.00
2019-03-23T00:26:51.522Z,0.00
2019-03-23T00:27:51.557Z,0.00
2019-03-23T00:28:51.508Z,0.00
2019-03-23T00:29:51.515Z,0.00
2019-03-23T00:30:51.484Z,0.00
2019-03-23T00:31:51.472Z,0.00
2019-03-23T00:32:51.462Z,0.00
2019-03-23T00:33:51.487Z,0.00
2019-03-23T00:34:51.458Z,0.00
2019-03-23T00:35:51.430Z,0.00
2019-03-23T00:36:51.428Z,0.00
2019-03-23T00:37:51.408Z,0.00
2019-03-23T00:38:51.397Z,0.00
2019-03-23T00:39:51.405Z,0.00
2019-03-23T00:40:51.391Z,0.00
2019-03-23T00:41:51.387Z,0.00
2019-03-23T00:42:51.353Z,0.00
2019-03-23T00:43:51.345Z,0.00
2019-03-23T00:44:51.351Z,0.00
2019-03-23T00:45:51.319Z,0.00
2019-03-23T00:46:51.312Z,0.00
2019-03-23T00:47:51.362Z,0.00
2019-03-23T00:48:51.295Z,0.00
2019-03-23T00:49:51.294Z,0.00
2019-03-23T00:50:51.269Z,0.00
2019-03-23T00:51:51.254Z,0.00
2019-03-23T00:52:51.257Z,0.00
2019-03-23T00:53:51.237Z,0.00
2019-03-23T00:54:51.303Z,0.00
2019-03-23T00:55:51.215Z,0.00
2019-03-23T00:56:51.226Z,0.00
2019-03-23T00:57:51.192Z,0.00
2019-03-23T00:58:51.181Z,0.00
2019-03-23T00:59:51.185Z,0.00
2019-03-23T01:00:51.197Z,0.00
2019-03-23T01:01:51.149Z,0.00
2019-03-23T01:02:51.146Z,0.00
2019-03-23T01:03:51.127Z,0.00
2019-03-23T01:04:51.131Z,0.00
2019-03-23T01:05:51.111Z,0.00
2019-03-23T01:06:52.327Z,0.00
2019-03-23T01:07:51.087Z,0.00
2019-03-23T01:08:51.079Z,0.00
2019-03-23T01:09:51.101Z,0.00
2019-03-23T01:10:51.053Z,0.00
2019-03-23T01:11:51.055Z,0.00
2019-03-23T01:12:51.037Z,0.00
2019-03-23T01:13:51.023Z,0.00
2019-03-23T01:14:51.058Z,0.00
2019-03-23T01:15:51.055Z,0.00
2019-03-23T01:16:50.991Z,0.00
2019-03-23T01:17:50.985Z,0.00
2019-03-23T01:18:50.973Z,0.00
2019-03-23T01:19:51.013Z,0.00
2019-03-23T01:20:50.949Z,0.00
2019-03-23T01:21:50.941Z,0.00
2019-03-23T01:22:50.927Z,0.00
2019-03-23T01:23:51.013Z,0.00
2019-03-23T01:24:50.921Z,0.00
2019-03-23T01:25:50.893Z,0.00
2019-03-23T01:26:50.914Z,0.00
2019-03-23T01:27:50.881Z,0.00
2019-03-23T01:28:50.870Z,0.00
2019-03-23T01:29:50.865Z,0.00
2019-03-23T01:30:50.874Z,0.00
2019-03-23T01:31:50.828Z,0.00
2019-03-23T01:32:50.815Z,0.00
2019-03-23T01:33:50.808Z,0.00
2019-03-23T01:34:50.807Z,0.00
2019-03-23T01:35:50.788Z,0.00
2019-03-23T01:36:50.802Z,0.00
2019-03-23T01:37:50.774Z,0.00
2019-03-23T01:38:50.756Z,0.00
2019-03-23T01:39:50.756Z,0.00
2019-03-23T01:40:50.739Z,0.00
2019-03-23T01:41:50.726Z,0.00
2019-03-23T01:42:50.712Z,0.00
2019-03-23T01:43:50.701Z,0.00
2019-03-23T01:44:50.724Z,0.00
2019-03-23T01:45:50.683Z,0.00
2019-03-23T01:46:50.670Z,0.00
2019-03-23T01:47:50.668Z,0.00
2019-03-23T01:48:50.648Z,0.00
2019-03-23T01:49:50.636Z,0.00
2019-03-23T01:50:50.640Z,0.00
2019-03-23T01:51:50.622Z,0.00
2019-03-23T01:52:50.610Z,0.00
2019-03-23T01:53:50.636Z,0.00
2019-03-23T01:54:50.583Z,0.00
2019-03-23T01:55:50.589Z,0.00
2019-03-23T01:56:50.569Z,0.00
2019-03-23T01:57:50.554Z,0.00
2019-03-23T01:58:50.544Z,0.00
2019-03-23T01:59:50.528Z,0.00
2019-03-23T02:00:50.590Z,0.00
2019-03-23T02:01:50.512Z,0.00
2019-03-23T02:02:50.503Z,0.00
2019-03-23T02:03:50.492Z,0.00
2019-03-23T02:04:50.479Z,0.00
2019-03-23T02:05:50.490Z,0.00
2019-03-23T02:06:50.459Z,0.00
2019-03-23T02:07:50.488Z,0.00
2019-03-23T02:08:50.440Z,0.00
2019-03-23T02:09:50.431Z,0.00
2019-03-23T02:10:50.430Z,0.00
2019-03-23T02:11:50.414Z,0.00
2019-03-23T02:12:50.399Z,0.00
2019-03-23T02:13:50.383Z,0.00
2019-03-23T02:14:50.405Z,0.00
2019-03-23T02:15:50.373Z,0.00
2019-03-23T02:16:50.355Z,0.00
2019-03-23T02:17:50.336Z,0.00
2019-03-23T02:18:50.336Z,0.00
2019-03-23T02:19:50.316Z,0.00
2019-03-23T02:20:50.317Z,0.00
2019-03-23T02:21:50.326Z,0.00
2019-03-23T02:22:50.279Z,0.00
2019-03-23T02:23:50.275Z,0.00
2019-03-23T02:24:50.263Z,0.00
2019-03-23T02:25:50.269Z,0.00
2019-03-23T02:26:50.239Z,0.00
2019-03-23T02:27:50.234Z,0.00
2019-03-23T02:28:50.235Z,0.00
2019-03-23T02:29:50.208Z,0.00
2019-03-23T02:30:50.214Z,0.00
2019-03-23T02:31:50.185Z,0.00
2019-03-23T02:32:50.178Z,0.00
2019-03-23T02:33:50.166Z,0.00
2019-03-23T02:34:50.152Z,0.00
2019-03-23T02:35:50.174Z,0.00
2019-03-23T02:36:50.134Z,0.00
2019-03-23T02:37:50.120Z,0.00
2019-03-23T02:38:50.113Z,0.00
2019-03-23T02:39:50.107Z,0.00
2019-03-23T02:40:50.106Z,0.00
2019-03-23T02:41:50.091Z,0.00
2019-03-23T02:42:50.066Z,0.00
2019-03-23T02:43:50.065Z,0.00
2019-03-23T02:44:50.048Z,0.00
2019-03-23T02:45:50.051Z,0.00
2019-03-23T02:46:50.058Z,0.00
2019-03-23T02:47:50.009Z,0.00
2019-03-23T02:48:50.001Z,0.00
2019-03-23T02:49:49.990Z,0.00
2019-03-23T02:50:50.011Z,0.00
2019-03-23T02:51:49.973Z,0.00
2019-03-23T02:52:49.996Z,0.00
2019-03-23T02:53:49.946Z,0.00
2019-03-23T02:54:49.939Z,0.00
2019-03-23T02:55:49.921Z,0.00
2019-03-23T02:56:49.924Z,0.00
2019-03-23T02:57:49.901Z,0.00
2019-03-23T02:58:49.899Z,0.00
2019-03-23T02:59:49.886Z,0.00
2019-03-23T03:00:49.875Z,0.00
2019-03-23T03:01:49.875Z,0.00
2019-03-23T03:02:49.866Z,0.00
2019-03-23T03:03:49.850Z,0.00
2019-03-23T03:04:49.827Z,0.00
2019-03-23T03:05:49.812Z,0.00
2019-03-23T03:06:49.812Z,0.00
2019-03-23T03:07:49.795Z,0.00
2019-03-23T03:08:49.796Z,0.00
2019-03-23T03:09:49.777Z,0.00
2019-03-23T03:10:49.759Z,0.00
2019-03-23T03:11:49.761Z,0.00
2019-03-23T03:12:49.740Z,0.00
2019-03-23T03:13:49.722Z,0.00
2019-03-23T03:14:49.711Z,0.00
2019-03-23T03:15:49.709Z,0.00
2019-03-23T03:16:49.713Z,0.00
2019-03-23T03:17:49.702Z,0.00
2019-03-23T03:18:49.668Z,0.00
2019-03-23T03:19:49.661Z,0.00
2019-03-23T03:20:49.646Z,0.00
2019-03-23T03:21:49.673Z,0.00
2019-03-23T03:22:49.638Z,0.00
2019-03-23T03:23:49.618Z,0.00
2019-03-23T03:24:49.608Z,0.00
2019-03-23T03:25:49.596Z,0.00
2019-03-23T03:26:49.622Z,0.00
2019-03-23T03:27:49.593Z,0.00
2019-03-23T03:28:49.563Z,0.00
2019-03-23T03:29:49.560Z,0.00
2019-03-23T03:30:49.540Z,0.00
2019-03-23T03:31:49.531Z,0.00
2019-03-23T03:32:49.529Z,0.00
2019-03-23T03:33:49.586Z,0.00
2019-03-23T03:34:49.505Z,0.00
2019-03-23T03:35:49.481Z,0.00
2019-03-23T03:36:49.487Z,0.00
2019-03-23T03:37:56.328Z,0.00
2019-03-23T03:38:50.451Z,0.00
2019-03-23T03:39:49.501Z,0.00
2019-03-23T03:40:49.437Z,0.00
2019-03-23T03:41:49.420Z,0.00
2019-03-23T03:42:49.427Z,0.00
2019-03-23T03:43:49.399Z,0.00
2019-03-23T03:44:49.386Z,0.00
2019-03-23T03:45:49.380Z,0.00
2019-03-23T03:46:49.364Z,0.00
2019-03-23T03:47:49.411Z,0.00
2019-03-23T03:48:49.356Z,0.00
2019-03-23T03:49:49.337Z,0.00
2019-03-23T03:50:49.320Z,0.00
2019-03-23T03:51:49.320Z,0.00
2019-03-23T03:52:49.336Z,0.00
2019-03-23T03:53:49.289Z,0.00
2019-03-23T03:54:49.303Z,0.00
2019-03-23T03:55:49.275Z,0.00
2019-03-23T03:56:49.256Z,0.00
2019-03-23T03:57:49.265Z,0.00
2019-03-23T03:58:49.232Z,0.00
2019-03-23T03:59:49.217Z,0.00
2019-03-23T04:00:49.242Z,0.00
2019-03-23T04:01:49.207Z,0.00
2019-03-23T04:02:49.231Z,0.00
2019-03-23T04:03:49.178Z,0.00
2019-03-23T04:04:49.168Z,0.00
2019-03-23T04:05:49.166Z,0.00
2019-03-23T04:06:49.145Z,0.00
2019-03-23T04:07:49.132Z,0.00
2019-03-23T04:08:49.154Z,0.00
2019-03-23T04:09:49.117Z,0.00
2019-03-23T04:10:49.099Z,0.00
2019-03-23T04:11:49.090Z,0.00
2019-03-23T04:12:49.085Z,0.00
2019-03-23T04:13:49.084Z,0.00
2019-03-23T04:14:49.068Z,0.00
2019-03-23T04:15:49.043Z,0.00
2019-03-23T04:16:49.033Z,0.00
2019-03-23T04:17:49.035Z,0.00
2019-03-23T04:18:49.091Z,0.00
2019-03-23T04:19:49.006Z,0.00
2019-03-23T04:20:48.997Z,0.00
2019-03-23T04:21:48.978Z,0.00
2019-03-23T04:22:49.006Z,0.00
2019-03-23T04:23:48.982Z,0.00
2019-03-23T04:24:48.957Z,0.00
2019-03-23T04:25:48.935Z,0.00
2019-03-23T04:26:48.930Z,0.00
2019-03-23T04:27:48.915Z,0.00
2019-03-23T04:28:48.972Z,0.00
2019-03-23T04:29:48.899Z,0.00
2019-03-23T04:30:48.887Z,0.00
2019-03-23T04:31:48.882Z,0.00
2019-03-23T04:32:48.865Z,0.00
2019-03-23T04:33:48.911Z,0.00
2019-03-23T04:34:48.846Z,0.00
2019-03-23T04:35:48.825Z,0.00
2019-03-23T04:36:48.814Z,0.00
2019-03-23T04:37:48.836Z,0.00
2019-03-23T04:38:48.807Z,0.00
2019-03-23T04:39:48.792Z,0.00
2019-03-23T04:40:48.807Z,0.00
2019-03-23T04:41:48.763Z,0.00
2019-03-23T04:42:48.758Z,0.00
2019-03-23T04:43:48.754Z,0.00
2019-03-23T04:44:48.732Z,0.00
2019-03-23T04:45:48.722Z,0.00
2019-03-23T04:46:48.734Z,0.00
2019-03-23T04:47:48.698Z,0.00
2019-03-23T04:48:48.704Z,0.00
2019-03-23T04:49:48.672Z,0.00
2019-03-23T04:50:48.662Z,0.00
2019-03-23T04:51:48.658Z,5.62
2019-03-23T04:52:48.674Z,5.62
2019-03-23T04:53:48.670Z,5.62
2019-03-23T04:54:48.625Z,5.62
2019-03-23T04:55:48.612Z,5.62
2019-03-23T04:56:48.597Z,5.62
2019-03-23T04:57:48.590Z,5.62
2019-03-23T04:58:48.591Z,11.25
2019-03-23T04:59:48.572Z,11.25
2019-03-23T05:00:48.599Z,11.25
2019-03-23T05:01:48.556Z,11.25
2019-03-23T05:02:48.544Z,16.88
2019-03-23T05:03:48.543Z,16.88
2019-03-23T05:04:48.521Z,16.88
2019-03-23T05:05:48.503Z,16.88
2019-03-23T05:06:48.522Z,22.50
2019-03-23T05:07:48.528Z,22.50
2019-03-23T05:08:48.493Z,22.50
2019-03-23T05:09:48.459Z,28.12
2019-03-23T05:10:48.456Z,28.12
2019-03-23T05:11:48.445Z,28.12
2019-03-23T05:12:48.438Z,33.75
2019-03-23T05:13:48.433Z,33.75
2019-03-23T05:14:48.409Z,39.38
2019-03-23T05:15:48.397Z,39.38
2019-03-23T05:16:48.387Z,45.00
2019-03-23T05:17:48.420Z,45.00
2019-03-23T05:18:48.387Z,50.62
2019-03-23T05:19:48.351Z,56.25
2019-03-23T05:20:48.352Z,56.25
2019-03-23T05:21:48.333Z,61.88
2019-03-23T05:22:48.318Z,61.88
2019-03-23T05:23:48.379Z,67.50
2019-03-23T05:24:48.308Z,67.50
2019-03-23T05:25:48.289Z,73.12
2019-03-23T05:26:48.289Z,73.12
2019-03-23T05:27:48.265Z,84.38
2019-03-23T05:28:48.269Z,84.38
2019-03-23T05:29:48.304Z,84.38
2019-03-23T05:30:48.231Z,95.62
2019-03-23T05:31:48.228Z,95.62
2019-03-23T05:32:48.213Z,101.25
2019-03-23T05:33:48.207Z,106.88
2019-03-23T05:34:48.203Z,112.50
2019-03-23T05:35:48.187Z,112.50
2019-03-23T05:36:48.171Z,112.50
2019-03-23T05:37:48.165Z,118.12
2019-03-23T05:38:48.147Z,123.75
2019-03-23T05:39:48.165Z,129.38
2019-03-23T05:40:48.124Z,129.38
2019-03-23T05:41:48.139Z,135.00
2019-03-23T05:42:48.105Z,140.62
2019-03-23T05:43:48.092Z,146.25
2019-03-23T05:44:48.130Z,151.88
2019-03-23T05:45:48.079Z,168.75
2019-03-23T05:46:48.069Z,163.12
2019-03-23T05:47:48.050Z,180.00
2019-03-23T05:48:48.035Z,180.00
2019-03-23T05:49:48.064Z,185.62
2019-03-23T05:50:48.012Z,196.88
2019-03-23T05:51:48.015Z,196.88
2019-03-23T05:52:48.004Z,202.50
2019-03-23T05:53:47.983Z,208.12
2019-03-23T05:54:48.004Z,213.75
2019-03-23T05:55:47.972Z,213.75
2019-03-23T05:56:47.950Z,219.38
2019-03-23T05:57:48.009Z,225.00
2019-03-23T05:58:47.971Z,230.62
2019-03-23T05:59:47.942Z,230.62
2019-03-23T06:00:47.922Z,241.88
2019-03-23T06:01:47.906Z,247.50
2019-03-23T06:02:47.922Z,258.75
2019-03-23T06:03:47.876Z,258.75
2019-03-23T06:04:47.895Z,270.00
2019-03-23T06:05:47.863Z,275.62
2019-03-23T06:06:47.846Z,286.88
2019-03-23T06:07:47.840Z,286.88
2019-03-23T06:08:54.885Z,298.12
2019-03-23T06:09:48.836Z,298.12
2019-03-23T06:10:47.808Z,309.38
2019-03-23T06:11:47.805Z,315.00
2019-03-23T06:12:47.796Z,315.00
2019-03-23T06:13:47.772Z,326.25
2019-03-23T06:14:47.810Z,331.88
2019-03-23T06:15:47.771Z,348.75
2019-03-23T06:16:47.732Z,354.38
2019-03-23T06:17:47.734Z,365.62
2019-03-23T06:18:47.783Z,388.12
2019-03-23T06:19:47.709Z,382.50
2019-03-23T06:20:47.702Z,393.75
2019-03-23T06:21:47.689Z,393.75
2019-03-23T06:22:47.686Z,416.25
2019-03-23T06:23:47.657Z,421.88
2019-03-23T06:24:47.646Z,427.50
2019-03-23T06:25:47.660Z,427.50
2019-03-23T06:26:47.628Z,427.50
2019-03-23T06:27:47.622Z,427.50
2019-03-23T06:28:47.605Z,427.50
2019-03-23T06:29:47.599Z,427.50
2019-03-23T06:30:47.609Z,438.75
2019-03-23T06:31:47.583Z,438.75
2019-03-23T06:32:47.577Z,450.00
2019-03-23T06:33:47.551Z,455.62
2019-03-23T06:34:47.541Z,472.50
2019-03-23T06:35:47.622Z,495.00
2019-03-23T06:36:47.522Z,506.25
2019-03-23T06:37:47.510Z,500.62
2019-03-23T06:38:47.514Z,523.12
2019-03-23T06:39:47.494Z,517.50
2019-03-23T06:40:47.485Z,545.62
2019-03-23T06:41:47.509Z,523.12
2019-03-23T06:42:47.459Z,545.62
2019-03-23T06:43:47.472Z,551.25
2019-03-23T06:44:47.435Z,573.75
2019-03-23T06:45:47.439Z,579.38
2019-03-23T06:46:47.422Z,590.62
2019-03-23T06:47:47.437Z,596.25
2019-03-23T06:48:47.389Z,596.25
2019-03-23T06:49:47.386Z,585.00
2019-03-23T06:50:47.389Z,579.38
2019-03-23T06:51:47.356Z,607.50
2019-03-23T06:52:47.352Z,613.12
2019-03-23T06:53:47.337Z,624.38
2019-03-23T06:54:47.383Z,658.12
2019-03-23T06:55:47.344Z,675.00
2019-03-23T06:56:47.308Z,675.00
2019-03-23T06:57:47.286Z,641.25
2019-03-23T06:58:47.292Z,686.25
2019-03-23T06:59:47.354Z,680.62
2019-03-23T07:00:47.271Z,686.25
2019-03-23T07:01:47.265Z,691.88
2019-03-23T07:02:47.246Z,714.38
2019-03-23T07:03:47.228Z,680.62
2019-03-23T07:04:47.226Z,669.38
2019-03-23T07:05:47.206Z,686.25
2019-03-23T07:06:47.212Z,658.12
2019-03-23T07:07:47.184Z,691.88
2019-03-23T07:08:47.176Z,765.00
2019-03-23T07:09:47.160Z,860.62
2019-03-23T07:10:47.160Z,967.50
2019-03-23T07:11:47.154Z,1057.50
2019-03-23T07:12:47.147Z,1102.50
2019-03-23T07:13:47.126Z,1108.12
2019-03-23T07:14:47.140Z,1096.88
2019-03-23T07:15:47.099Z,1068.75
2019-03-23T07:16:47.108Z,1057.50
2019-03-23T07:17:47.076Z,1063.12
2019-03-23T07:18:47.069Z,1080.00
2019-03-23T07:19:47.062Z,1091.25
2019-03-23T07:20:47.050Z,1130.62
2019-03-23T07:21:47.050Z,1164.38
2019-03-23T07:22:47.026Z,1271.25
2019-03-23T07:23:47.042Z,1366.88
2019-03-23T07:24:47.000Z,1462.50
2019-03-23T07:25:46.988Z,1501.88
2019-03-23T07:26:46.998Z,1496.25
2019-03-23T07:27:46.976Z,1456.88
2019-03-23T07:28:46.962Z,1372.50
2019-03-23T07:29:46.962Z,1282.50
2019-03-23T07:30:46.936Z,1226.25
2019-03-23T07:31:46.953Z,1175.62
2019-03-23T07:32:46.968Z,1158.75
2019-03-23T07:33:46.902Z,1158.75
2019-03-23T07:34:46.894Z,1186.88
2019-03-23T07:35:46.879Z,1209.38
2019-03-23T07:36:46.884Z,1198.12
2019-03-23T07:37:46.871Z,1215.00
2019-03-23T07:38:46.858Z,1271.25
2019-03-23T07:39:46.856Z,1338.75
2019-03-23T07:40:46.835Z,1423.12
2019-03-23T07:41:46.848Z,1501.88
2019-03-23T07:42:46.832Z,1580.62
2019-03-23T07:43:46.821Z,1586.25
2019-03-23T07:44:46.785Z,1575.00
2019-03-23T07:45:46.801Z,1569.38
2019-03-23T07:46:46.778Z,1530.00
2019-03-23T07:47:46.750Z,1501.88
2019-03-23T07:48:46.747Z,1507.50
2019-03-23T07:49:46.739Z,1485.00
2019-03-23T07:50:46.725Z,1496.25
2019-03-23T07:51:46.731Z,1468.12
2019-03-23T07:52:46.706Z,1423.12
2019-03-23T07:53:46.701Z,1473.75
2019-03-23T07:54:46.680Z,1462.50
2019-03-23T07:55:46.666Z,1485.00
2019-03-23T07:56:46.694Z,1507.50
2019-03-23T07:57:46.648Z,1501.88
2019-03-23T07:58:46.633Z,1485.00
2019-03-23T07:59:46.637Z,1462.50
2019-03-23T08:00:46.620Z,1490.62
2019-03-23T08:01:46.615Z,1513.12
2019-03-23T08:02:46.607Z,1456.88
2019-03-23T08:03:46.583Z,1451.25
2019-03-23T08:04:46.575Z,1428.75
2019-03-23T08:05:46.581Z,1423.12
2019-03-23T08:06:46.593Z,1440.00
2019-03-23T08:07:46.556Z,1468.12
2019-03-23T08:08:46.531Z,1428.75
2019-03-23T08:09:46.525Z,1406.25
2019-03-23T08:10:46.513Z,1411.88
2019-03-23T08:11:46.519Z,1423.12
2019-03-23T08:12:46.487Z,1400.62
2019-03-23T08:13:46.490Z,1372.50
2019-03-23T08:14:46.469Z,1383.75
2019-03-23T08:15:46.482Z,1395.00
2019-03-23T08:16:46.469Z,1361.25
2019-03-23T08:17:46.449Z,1445.62
2019-03-23T08:18:46.427Z,2885.62
2019-03-23T08:19:46.427Z,2767.50
2019-03-23T08:20:46.409Z,2514.38
2019-03-23T08:21:46.442Z,2610.00
2019-03-23T08:22:46.394Z,2655.00
2019-03-23T08:23:46.387Z,2171.25
2019-03-23T08:24:46.359Z,2272.50
2019-03-23T08:25:46.353Z,2610.00
2019-03-23T08:26:46.366Z,2435.62
2019-03-23T08:27:46.331Z,1575.00
2019-03-23T08:28:46.325Z,1074.38
2019-03-23T08:29:46.318Z,1929.38
2019-03-23T08:30:46.310Z,1676.25
2019-03-23T08:31:46.330Z,1878.75
2019-03-23T08:32:46.309Z,1732.50
2019-03-23T08:33:46.292Z,1445.62
2019-03-23T08:34:46.256Z,1074.38
2019-03-23T08:35:46.252Z,1890.00
2019-03-23T08:36:46.293Z,1873.12
2019-03-23T08:37:46.232Z,1501.88
2019-03-23T08:38:46.214Z,1428.75
2019-03-23T08:39:48.623Z,1563.75
2019-03-23T08:40:46.192Z,1428.75
2019-03-23T08:41:46.214Z,1378.12
2019-03-23T08:42:46.176Z,1625.62
2019-03-23T08:43:46.205Z,1710.00
2019-03-23T08:44:46.150Z,1440.00
2019-03-23T08:45:46.166Z,1175.62
2019-03-23T08:46:46.375Z,1125.00
2019-03-23T08:47:46.134Z,748.12
2019-03-23T08:48:46.114Z,748.12
2019-03-23T08:49:46.106Z,956.25
2019-03-23T08:50:46.092Z,1653.75
2019-03-23T08:51:46.077Z,1715.62
2019-03-23T08:52:46.080Z,1136.25
2019-03-23T08:53:46.079Z,2025.00
2019-03-23T08:54:46.075Z,1839.38
2019-03-23T08:55:46.038Z,967.50
2019-03-23T08:56:46.030Z,748.12
2019-03-23T08:57:46.032Z,1018.12
2019-03-23T08:58:46.003Z,1738.12
2019-03-23T08:59:45.994Z,1822.50
2019-03-23T09:00:45.986Z,1873.12
2019-03-23T09:01:46.000Z,1310.62
2019-03-23T09:02:45.994Z,922.50
2019-03-23T09:03:52.432Z,1074.38
2019-03-23T09:04:46.949Z,1102.50
2019-03-23T09:05:45.928Z,1113.75
2019-03-23T09:06:45.915Z,787.50
2019-03-23T09:07:45.934Z,748.12
2019-03-23T09:08:45.933Z,753.75
2019-03-23T09:09:45.892Z,1040.62
2019-03-23T09:10:45.910Z,1698.75
2019-03-23T09:11:45.871Z,1333.12
2019-03-23T09:12:45.867Z,1023.75
2019-03-23T09:13:45.879Z,990.00
2019-03-23T09:14:45.874Z,1726.88
2019-03-23T09:15:45.837Z,2002.50
2019-03-23T09:16:45.825Z,1507.50
2019-03-23T09:17:45.807Z,1260.00
2019-03-23T09:18:45.826Z,1018.12
2019-03-23T09:19:45.782Z,798.75
2019-03-23T09:20:45.782Z,978.75
2019-03-23T09:21:45.798Z,1192.50
2019-03-23T09:22:45.752Z,1591.88
2019-03-23T09:23:45.766Z,1890.00
2019-03-23T09:24:45.733Z,1591.88
2019-03-23T09:25:45.903Z,1513.12
2019-03-23T09:26:45.749Z,1029.38
2019-03-23T09:27:45.693Z,995.62
2019-03-23T09:28:45.697Z,787.50
2019-03-23T09:29:45.671Z,990.00
2019-03-23T09:30:45.680Z,1546.88
2019-03-23T09:31:45.663Z,2081.25
2019-03-23T09:32:45.648Z,2103.75
2019-03-23T09:33:45.648Z,1530.00
2019-03-23T09:34:45.644Z,1440.00
2019-03-23T09:35:45.613Z,883.12
2019-03-23T09:36:45.602Z,928.12
2019-03-23T09:37:45.609Z,1260.00
2019-03-23T09:38:45.633Z,2109.38
2019-03-23T09:39:45.567Z,1766.25
2019-03-23T09:40:45.572Z,1636.88
2019-03-23T09:41:45.558Z,1569.38
2019-03-23T09:42:45.552Z,888.75
2019-03-23T09:43:45.553Z,1085.62
2019-03-23T09:44:45.513Z,1271.25
2019-03-23T09:45:45.518Z,1687.50
2019-03-23T09:46:45.493Z,1929.38
2019-03-23T09:47:45.494Z,1710.00
2019-03-23T09:48:45.496Z,1468.12
2019-03-23T09:49:45.476Z,1473.75
2019-03-23T09:50:45.473Z,2356.88
2019-03-23T09:51:45.438Z,2958.75
2019-03-23T09:52:45.474Z,2176.88
2019-03-23T09:53:45.450Z,2227.50
2019-03-23T09:54:45.414Z,1406.25
2019-03-23T09:55:45.407Z,933.75
2019-03-23T09:56:45.388Z,1215.00
2019-03-23T09:57:45.452Z,1800.00
2019-03-23T09:58:45.368Z,2435.62
2019-03-23T09:59:45.370Z,1462.50
2019-03-23T10:00:45.389Z,1738.12
2019-03-23T10:01:45.335Z,2508.75
2019-03-23T10:02:45.325Z,2362.50
2019-03-23T10:03:45.329Z,1704.38
2019-03-23T10:04:45.314Z,1456.88
2019-03-23T10:05:45.296Z,1040.62
2019-03-23T10:06:45.282Z,1147.50
2019-03-23T10:07:45.275Z,1524.38
2019-03-23T10:08:46.475Z,1575.00
2019-03-23T10:09:45.271Z,1850.62
2019-03-23T10:10:45.254Z,1614.38
2019-03-23T10:11:45.236Z,1068.75
2019-03-23T10:12:45.227Z,888.75
2019-03-23T10:13:45.212Z,843.75
2019-03-23T10:14:45.217Z,860.62
2019-03-23T10:15:45.194Z,866.25
2019-03-23T10:16:45.184Z,2705.62
2019-03-23T10:17:45.174Z,2238.75
2019-03-23T10:18:45.159Z,2340.00
2019-03-23T10:19:45.163Z,3071.25
2019-03-23T10:20:45.149Z,2835.00
2019-03-23T10:21:45.132Z,2520.00
2019-03-23T10:22:45.117Z,2356.88
2019-03-23T10:23:45.109Z,2958.75
2019-03-23T10:24:45.123Z,3110.62
2019-03-23T10:25:45.090Z,3223.12
2019-03-23T10:26:45.078Z,2694.38
2019-03-23T10:27:45.080Z,2570.62
2019-03-23T10:28:45.055Z,1670.62
2019-03-23T10:29:45.090Z,933.75
2019-03-23T10:30:45.034Z,1181.25
2019-03-23T10:31:45.073Z,978.75
2019-03-23T10:32:45.011Z,1231.88
2019-03-23T10:33:45.002Z,1248.75
2019-03-23T10:34:44.997Z,1935.00
2019-03-23T10:35:44.997Z,3330.00
2019-03-23T10:36:45.004Z,2970.00
2019-03-23T10:37:44.958Z,2553.75
2019-03-23T10:38:44.949Z,2210.62
2019-03-23T10:39:44.939Z,2795.62
2019-03-23T10:40:44.955Z,2536.88
2019-03-23T10:41:44.920Z,2688.75
2019-03-23T10:42:44.936Z,2435.62
2019-03-23T10:43:44.918Z,2306.25
2019-03-23T10:44:44.895Z,1215.00
2019-03-23T10:45:44.893Z,1417.50
2019-03-23T10:46:44.869Z,1468.12
2019-03-23T10:47:44.992Z,1366.88
2019-03-23T10:48:44.841Z,1310.62
2019-03-23T10:49:44.841Z,1198.12
2019-03-23T10:50:44.859Z,1648.12
2019-03-23T10:51:44.828Z,1445.62
2019-03-23T10:52:44.803Z,1310.62
2019-03-23T10:53:44.789Z,1305.00
2019-03-23T10:54:44.781Z,1704.38
2019-03-23T10:55:44.779Z,2728.12
2019-03-23T10:56:44.787Z,3656.25
2019-03-23T10:57:44.777Z,3431.25
2019-03-23T10:58:44.745Z,3268.12
2019-03-23T10:59:44.725Z,3386.25
2019-03-23T11:00:44.716Z,3684.38
2019-03-23T11:01:44.728Z,3808.12
2019-03-23T11:02:44.703Z,3262.50
2019-03-23T11:03:44.687Z,3048.75
2019-03-23T11:04:44.691Z,2047.50
2019-03-23T11:05:44.681Z,1659.38
2019-03-23T11:06:44.701Z,2002.50
2019-03-23T11:07:44.642Z,2311.88
2019-03-23T11:08:44.629Z,2801.25
2019-03-23T11:09:44.628Z,2356.88
2019-03-23T11:10:44.611Z,1310.62
2019-03-23T11:11:44.624Z,1293.75
2019-03-23T11:12:44.590Z,1698.75
2019-03-23T11:13:44.574Z,2086.88
2019-03-23T11:14:44.569Z,3211.88
2019-03-23T11:15:44.559Z,2761.88
2019-03-23T11:16:44.563Z,2643.75
2019-03-23T11:17:44.560Z,2430.00
2019-03-23T11:18:44.522Z,3285.00
2019-03-23T11:19:44.512Z,3566.25
2019-03-23T11:20:44.498Z,3555.00
2019-03-23T11:21:44.514Z,3172.50
2019-03-23T11:22:44.483Z,2716.88
2019-03-23T11:23:45.595Z,2750.62
2019-03-23T11:24:44.478Z,2885.62
2019-03-23T11:25:44.447Z,3346.88
2019-03-23T11:26:44.437Z,3791.25
2019-03-23T11:27:44.442Z,2846.25
2019-03-23T11:28:44.469Z,3200.62
2019-03-23T11:29:44.403Z,3645.00
2019-03-23T11:30:44.405Z,3830.62
2019-03-23T11:31:44.382Z,3723.75
2019-03-23T11:32:44.398Z,3768.75
2019-03-23T11:33:44.365Z,3706.88
2019-03-23T11:34:44.357Z,3780.00
2019-03-23T11:35:44.342Z,3751.88
2019-03-23T11:36:44.342Z,3504.38
2019-03-23T11:37:44.694Z,2986.88
2019-03-23T11:38:44.333Z,2368.12
2019-03-23T11:39:44.306Z,3341.25
2019-03-23T11:40:52.177Z,2851.88
2019-03-23T11:41:45.280Z,3155.62
2019-03-23T11:42:50.020Z,3127.50
2019-03-23T11:43:45.262Z,2975.62
2019-03-23T11:44:44.337Z,2446.88
2019-03-23T11:45:44.246Z,2930.62
2019-03-23T11:46:44.232Z,2610.00
2019-03-23T11:47:44.223Z,2778.75
2019-03-23T11:48:44.224Z,2621.25
2019-03-23T11:49:44.200Z,2823.75
2019-03-23T11:50:44.194Z,3015.00
2019-03-23T11:51:44.202Z,3470.62
2019-03-23T11:52:44.180Z,3560.62
2019-03-23T11:53:44.178Z,3645.00
2019-03-23T11:54:44.152Z,3684.38
2019-03-23T11:55:44.139Z,3667.50
2019-03-23T11:56:44.138Z,3583.12
2019-03-23T11:57:44.126Z,3611.25
2019-03-23T11:58:44.181Z,3577.50
2019-03-23T11:59:44.100Z,3543.75
2019-03-23T12:00:44.095Z,3560.62
2019-03-23T12:01:51.452Z,3577.50
2019-03-23T12:02:45.104Z,3532.50
2019-03-23T12:03:44.062Z,3470.62
2019-03-23T12:04:44.049Z,3532.50
2019-03-23T12:05:44.040Z,3425.62
2019-03-23T12:06:44.048Z,2868.75
2019-03-23T12:07:44.032Z,3144.38
2019-03-23T12:08:44.035Z,2379.38
2019-03-23T12:09:44.008Z,3082.50
2019-03-23T12:10:43.993Z,2953.12
2019-03-23T12:11:43.983Z,2553.75
2019-03-23T12:12:43.973Z,3262.50
2019-03-23T12:13:43.981Z,3031.88
2019-03-23T12:14:43.943Z,3076.88
2019-03-23T12:15:43.955Z,3386.25
2019-03-23T12:16:43.921Z,3358.12
2019-03-23T12:17:43.920Z,3240.00
2019-03-23T12:18:43.912Z,2992.50
2019-03-23T12:19:43.903Z,2688.75
2019-03-23T12:20:43.883Z,3048.75
2019-03-23T12:21:43.888Z,3020.62
2019-03-23T12:22:43.861Z,2908.12
2019-03-23T12:23:43.864Z,3071.25
2019-03-23T12:24:43.849Z,2868.75
2019-03-23T12:25:43.845Z,2913.75
2019-03-23T12:26:43.827Z,3031.88
2019-03-23T12:27:43.806Z,3071.25
2019-03-23T12:28:43.844Z,3200.62
2019-03-23T12:29:43.783Z,2953.12
2019-03-23T12:30:43.797Z,3009.38
2019-03-23T12:31:43.761Z,2795.62
2019-03-23T12:32:43.754Z,3150.00
2019-03-23T12:33:43.744Z,3290.62
2019-03-23T12:34:43.765Z,2986.88
2019-03-23T12:35:43.716Z,3273.75
2019-03-23T12:36:43.707Z,3037.50
2019-03-23T12:37:43.709Z,2199.38
2019-03-23T12:38:43.685Z,2165.62